Portada
METAR-TAF:

METAR-TAF

Aeroports :

Samarcanda, Uzbekistan

latitud: 39-34N, longitud: 066-57E, altitud: 724 m

Observació

L'informe es va fer fa 20 minuts, a les 04:30 UTC
Vent 6 kt del Est/Sud-Est
Temperatura 4°C
Humitat 48%
Pressió 1023 hPa
Visibilitat 10 km o més

METAR: UTSS 280430Z 12006KT 9999 NSC 04/M06 Q1023 R09/CLRD70 NOSIG

Hora: 09:50 (04:50 UTC)

Pronòstic

L'informe es va fer fa 5 hores i 53 minuts, a les 22:57 UTC
Pronòstic vàlid del 28 a les 00 UTC al 28 a les 24 UTC
Vent 12 kt del Sud-Est
Visibilitat 10 km o més
Temporalment
l' 28 a les 00 UTC al 28 a les 06 UTC
Vent 10 kt del Est amb ràfegues de 20 kt
Visibilitat: 1500 m
boirina
Temporalment
l' 28 a les 06 UTC al 28 a les 15 UTC
Vent 10 kt del Nord-Oest amb ràfegues de 20 kt

TAF: UTSS 272257Z 2800/2824 13012KT 9999 NSC TEMPO 2800/2806 10010G20KT 1500 BR TEMPO 2806/2815 31010G20KT

Observacions i pronòstics meteorològics de més de 4000 aeroports (METAR i TAF).

Les estacions disponibles són els punts grocs i vermells al mapa.

Posi el ratolí al punt desitjat per veure el nom de l'estació.

Feu clic per veure les observacions i els pronòstics meteorològics.

Per canviar el mapa: feu clic els botons verds amb una creu de color negre per apropar; al botó verd amb un guió per allunyar la imatge; o en les fletxes verdes per a mapes adjacents.


METAR-TAF: